University Buffalo, New York
Current Conditions -  °F | °C
As of 5:54 PM on Tuesday 27 Jan 2015 (Local Time) from KBUF Reporting Station
Broken Clouds Broken Clouds  
Wind Chill: -9°   Ceiling: 10000
Heat Index: -9°   Visibility: 10mi
Dew Point: -16°   Wind: 0mph
Humidity: 59%   Direction: NA
Pressure: 30.08"   Gusts: NA
Location:  42.9393°N, 78.8401°W
Report Text: KBUF 272254Z 00000KT 10SM FEW025 BKN100 BKN280 M09/M16 A3008 RMK AO2 SLP201 T10941161
Loading
Personal Weather Stations






























Interactive Weather Map New forecast layout! Learn more

10-Day Weather Forecast

Advertisements
Track Severe Weather on mobile